Time;durP1;ratioP1;P1;durP2;ratioP2;P2;SDS_P1;SDS_P2;PMS_P1;PMS_P2;Temp;Humidity;BMP_temperature;BMP_pressure;BME280_temperature;BME280_humidity;BME280_pressure;Samples;Min_cycle;Max_cycle;Signal;HPM_P1;HPM_P2
2022/04/23 00:01:39;;;;;;;;;27.67;26.33;;;;;;;;5083630;28;45466;-85
2022/04/23 00:04:05;;;;;;;;;28.33;25.00;;;;;;;;5065638;28;45705;-85
2022/04/23 00:06:31;;;;;;;;;32.33;27.67;;;;;;;;5076370;28;45490;-84
2022/04/23 00:08:57;;;;;;;;;33.00;30.67;;;;;;;;5040743;28;46101;-81
2022/04/23 00:11:22;;;;;;;;;28.00;26.67;;;;;;;;5052678;28;47103;-80
2022/04/23 00:13:47;;;;;;;;;30.33;27.67;;;;;;;;5061283;28;45468;-80
2022/04/23 00:16:15;;;;;;;;;64.50;48.25;;;;;;;;5077357;28;45757;-81
2022/04/23 00:18:40;;;;;;;;;39.33;32.67;;;;;;;;5080655;27;45422;-79
2022/04/23 00:21:06;;;;;;;;;34.00;31.00;;;;;;;;5047166;28;46705;-82
2022/04/23 00:23:31;;;;;;;;;28.33;28.33;;;;;;;;5078094;28;45277;-80
2022/04/23 00:25:58;;;;;;;;;31.67;27.67;;;;;;;;5078553;28;45851;-80
2022/04/23 00:28:23;;;;;;;;;29.67;27.00;;;;;;;;5059048;28;46078;-81
2022/04/23 00:30:48;;;;;;;;;23.67;21.00;;;;;;;;5072519;27;45900;-80
2022/04/23 00:33:14;;;;;;;;;30.33;29.00;;;;;;;;5101140;27;45578;-86
2022/04/23 00:35:39;;;;;;;;;31.00;28.33;;;;;;;;5074403;27;45408;-85
2022/04/23 00:38:05;;;;;;;;;30.00;28.67;;;;;;;;5085699;27;45581;-86
2022/04/23 00:40:31;;;;;;;;;26.67;26.67;;;;;;;;5087361;27;46886;-85
2022/04/23 00:42:57;;;;;;;;;26.33;22.00;;;;;;;;5102594;27;45777;-80
2022/04/23 00:45:23;;;;;;;;;32.33;28.33;;;;;;;;5083491;27;45388;-80
2022/04/23 00:47:48;;;;;;;;;28.67;27.67;;;;;;;;5079769;28;45260;-81
2022/04/23 00:50:14;;;;;;;;;32.00;29.33;;;;;;;;5086316;27;45948;-85
2022/04/23 00:52:39;;;;;;;;;25.67;23.33;;;;;;;;5079352;27;45551;-81
2022/04/23 00:55:06;;;;;;;;;32.33;28.00;;;;;;;;5104703;27;45410;-80
2022/04/23 00:57:31;;;;;;;;;30.33;29.33;;;;;;;;5094623;27;45125;-79
2022/04/23 00:59:57;;;;;;;;;33.33;28.33;;;;;;;;5085771;27;47460;-80
2022/04/23 01:02:22;;;;;;;;;29.33;25.00;;;;;;;;5078907;27;45545;-81
2022/04/23 01:04:48;;;;;;;;;30.00;27.33;;;;;;;;5078504;27;45836;-80
2022/04/23 01:07:13;;;;;;;;;34.33;28.67;;;;;;;;5087506;27;46019;-84
2022/04/23 01:09:39;;;;;;;;;33.67;29.33;;;;;;;;5063398;28;46891;-84
2022/04/23 01:12:05;;;;;;;;;31.67;30.33;;;;;;;;5063864;28;45303;-84
2022/04/23 01:14:30;;;;;;;;;33.00;28.00;;;;;;;;5085404;27;45429;-83
2022/04/23 01:16:55;;;;;;;;;30.00;28.67;;;;;;;;5079427;28;46042;-84
2022/04/23 01:19:22;;;;;;;;;40.33;30.00;;;;;;;;5081065;28;45352;-83
2022/04/23 01:21:47;;;;;;;;;30.00;25.33;;;;;;;;5077104;28;45431;-86
2022/04/23 01:24:14;;;;;;;;;34.33;29.00;;;;;;;;5078647;28;45636;-85
2022/04/23 01:26:39;;;;;;;;;36.00;30.00;;;;;;;;5061608;28;46732;-85
2022/04/23 01:29:05;;;;;;;;;26.67;25.67;;;;;;;;5078802;28;45689;-83
2022/04/23 01:31:32;;;;;;;;;31.00;28.33;;;;;;;;5078992;28;45453;-82
2022/04/23 01:33:57;;;;;;;;;33.67;30.33;;;;;;;;5082417;27;45377;-80
2022/04/23 01:36:23;;;;;;;;;30.33;29.67;;;;;;;;5090950;27;45369;-84
2022/04/23 01:38:48;;;;;;;;;29.00;28.33;;;;;;;;5078361;28;45970;-81
2022/04/23 01:41:21;;;;;;;;;29.33;29.00;;;;;;;;5065478;27;45461;-81
2022/04/23 01:43:47;;;;;;;;;34.67;31.00;;;;;;;;5074883;27;45821;-80
2022/04/23 01:46:12;;;;;;;;;37.67;30.67;;;;;;;;5095345;27;45727;-86
2022/04/23 01:48:38;;;;;;;;;39.33;34.33;;;;;;;;5077100;27;45673;-81
2022/04/23 01:51:03;;;;;;;;;29.00;26.67;;;;;;;;5097293;27;44883;-80
2022/04/23 01:53:29;;;;;;;;;20.00;16.67;;;;;;;;5097667;27;45391;-79
2022/04/23 01:55:54;;;;;;;;;32.67;30.33;;;;;;;;5076037;27;45880;-79
2022/04/23 01:58:21;;;;;;;;;32.00;31.00;;;;;;;;5093388;27;45767;-80
2022/04/23 02:00:46;;;;;;;;;40.00;32.00;;;;;;;;5089600;27;45564;-81
2022/04/23 02:03:14;;;;;;;;;30.33;27.67;;;;;;;;5076113;28;45889;-83
2022/04/23 02:05:39;;;;;;;;;21.33;20.67;;;;;;;;5077782;27;45483;-84
2022/04/23 02:08:05;;;;;;;;;35.33;31.00;;;;;;;;5058418;28;46946;-83
2022/04/23 02:10:30;;;;;;;;;34.33;30.67;;;;;;;;5075908;28;45474;-84
2022/04/23 02:12:55;;;;;;;;;35.00;31.00;;;;;;;;5078178;28;45619;-84
2022/04/23 02:15:21;;;;;;;;;33.33;32.00;;;;;;;;5057821;28;47149;-84
2022/04/23 02:17:50;;;;;;;;;32.33;30.33;;;;;;;;5058667;28;46581;-86
2022/04/23 02:20:16;;;;;;;;;31.00;30.00;;;;;;;;5072474;27;45489;-85
2022/04/23 02:22:42;;;;;;;;;37.67;31.67;;;;;;;;5094653;27;45509;-79
2022/04/23 02:25:07;;;;;;;;;38.00;33.00;;;;;;;;5065631;28;45881;-79
2022/04/23 02:27:40;;;;;;;;;39.67;32.00;;;;;;;;5074497;27;46785;-84
2022/04/23 02:30:06;;;;;;;;;32.00;30.00;;;;;;;;5081038;27;45457;-84
2022/04/23 02:32:32;;;;;;;;;35.33;30.33;;;;;;;;5100906;27;45411;-85
2022/04/23 02:34:57;;;;;;;;;29.00;27.33;;;;;;;;5079696;28;45409;-81
2022/04/23 02:37:22;;;;;;;;;31.67;29.00;;;;;;;;5097277;27;45526;-86
2022/04/23 02:39:48;;;;;;;;;36.00;30.33;;;;;;;;5097112;27;45168;-85
2022/04/23 02:42:17;;;;;;;;;20.33;17.33;;;;;;;;5093203;27;45357;-85
2022/04/23 02:44:43;;;;;;;;;33.00;30.00;;;;;;;;5083826;27;45759;-81
2022/04/23 02:47:09;;;;;;;;;30.67;28.00;;;;;;;;5081040;28;47097;-82
2022/04/23 02:49:34;;;;;;;;;35.67;29.67;;;;;;;;5075980;27;45570;-81
2022/04/23 02:51:59;;;;;;;;;30.67;28.00;;;;;;;;5111576;27;45387;-82
2022/04/23 02:54:25;;;;;;;;;30.33;29.33;;;;;;;;5092396;27;46516;-82
2022/04/23 02:56:50;;;;;;;;;35.00;31.33;;;;;;;;5112032;27;45403;-80
2022/04/23 02:59:16;;;;;;;;;32.00;27.67;;;;;;;;5090775;27;45390;-81
2022/04/23 03:01:41;;;;;;;;;35.00;32.00;;;;;;;;5082710;27;45447;-82
2022/04/23 03:04:09;;;;;;;;;34.00;30.00;;;;;;;;5104022;27;45583;-82
2022/04/23 03:06:35;;;;;;;;;33.00;32.00;;;;;;;;5089251;27;45928;-76
2022/04/23 03:09:03;;;;;;;;;26.33;25.33;;;;;;;;5059403;28;45667;-75
2022/04/23 03:11:28;;;;;;;;;29.00;28.67;;;;;;;;5078917;28;45739;-75
2022/04/23 03:13:54;;;;;;;;;31.67;28.00;;;;;;;;5080114;28;45766;-76
2022/04/23 03:16:19;;;;;;;;;27.67;27.67;;;;;;;;5061357;28;46726;-77
2022/04/23 03:18:44;;;;;;;;;28.00;26.33;;;;;;;;5080582;27;45699;-83
2022/04/23 03:21:10;;;;;;;;;33.00;30.00;;;;;;;;5079762;28;45351;-85
2022/04/23 03:23:36;;;;;;;;;32.67;30.00;;;;;;;;5061520;28;46496;-82
2022/04/23 03:26:02;;;;;;;;;33.67;30.33;;;;;;;;5078540;28;46086;-80
2022/04/23 03:28:28;;;;;;;;;30.00;24.67;;;;;;;;5059687;28;45888;-81
2022/04/23 03:30:53;;;;;;;;;28.00;27.00;;;;;;;;5078037;28;45649;-82
2022/04/23 03:33:19;;;;;;;;;30.00;29.00;;;;;;;;5094760;27;45447;-82
2022/04/23 03:35:44;;;;;;;;;28.00;24.33;;;;;;;;5080878;27;45684;-76
2022/04/23 03:38:09;;;;;;;;;33.00;29.67;;;;;;;;5077983;28;45810;-74
2022/04/23 03:40:36;;;;;;;;;33.67;30.33;;;;;;;;5084458;27;46012;-77
2022/04/23 03:43:02;;;;;;;;;31.67;30.00;;;;;;;;5099915;27;45670;-75
2022/04/23 03:45:28;;;;;;;;;29.33;29.00;;;;;;;;5100221;27;45704;-77
2022/04/23 03:47:53;;;;;;;;;31.00;26.67;;;;;;;;5106319;27;44716;-76
2022/04/23 03:50:20;;;;;;;;;37.00;30.33;;;;;;;;5099073;27;45019;-75
2022/04/23 03:52:45;;;;;;;;;27.00;25.00;;;;;;;;5106821;27;45480;-76
2022/04/23 03:55:11;;;;;;;;;33.67;29.67;;;;;;;;5106061;27;45399;-77
2022/04/23 03:57:45;;;;;;;;;32.00;30.33;;;;;;;;5106801;27;45410;-77
2022/04/23 04:00:11;;;;;;;;;32.00;29.67;;;;;;;;5114697;27;45387;-81
2022/04/23 04:02:36;;;;;;;;;30.67;28.33;;;;;;;;5082309;27;45517;-82
2022/04/23 04:05:02;;;;;;;;;28.67;26.33;;;;;;;;5065992;27;47254;-79
2022/04/23 04:07:27;;;;;;;;;29.00;25.67;;;;;;;;5106083;27;45427;-77
2022/04/23 04:09:52;;;;;;;;;29.33;27.67;;;;;;;;5089750;27;45325;-77
2022/04/23 04:12:17;;;;;;;;;28.00;25.00;;;;;;;;5079790;27;45882;-79
2022/04/23 04:14:43;;;;;;;;;32.33;28.33;;;;;;;;5097815;27;45482;-82
2022/04/23 04:17:11;;;;;;;;;28.33;28.33;;;;;;;;5097596;27;45812;-83
2022/04/23 04:19:37;;;;;;;;;32.00;30.00;;;;;;;;5061653;28;45447;-83
2022/04/23 04:22:03;;;;;;;;;36.00;32.00;;;;;;;;5076046;28;45633;-82
2022/04/23 04:24:29;;;;;;;;;37.67;31.67;;;;;;;;5074923;28;47179;-76
2022/04/23 04:26:54;;;;;;;;;32.50;31.25;;;;;;;;5073601;28;45979;-75
2022/04/23 04:29:20;;;;;;;;;37.67;30.00;;;;;;;;5073164;28;45800;-77
2022/04/23 04:31:49;;;;;;;;;30.25;30.00;;;;;;;;5072932;28;45768;-76
2022/04/23 04:34:18;;;;;;;;;32.67;29.00;;;;;;;;5080127;27;45697;-83
2022/04/23 04:36:44;;;;;;;;;30.33;27.33;;;;;;;;5096233;27;45364;-83
2022/04/23 04:39:09;;;;;;;;;34.67;27.33;;;;;;;;5096321;27;45435;-80
2022/04/23 04:41:35;;;;;;;;;37.33;32.00;;;;;;;;5079610;27;45485;-82
2022/04/23 04:44:01;;;;;;;;;31.00;29.33;;;;;;;;5081026;27;46363;-86
2022/04/23 04:46:27;;;;;;;;;32.33;28.33;;;;;;;;5074719;27;45695;-85
2022/04/23 04:48:55;;;;;;;;;27.33;26.00;;;;;;;;5093499;27;45410;-84
2022/04/23 04:51:20;;;;;;;;;22.33;19.00;;;;;;;;5090832;27;45557;-84
2022/04/23 04:53:46;;;;;;;;;28.67;24.33;;;;;;;;5093464;27;48308;-84
2022/04/23 04:56:11;;;;;;;;;34.00;28.67;;;;;;;;5086910;27;45464;-80
2022/04/23 04:58:37;;;;;;;;;27.67;24.67;;;;;;;;5092416;27;46599;-83
2022/04/23 05:01:03;;;;;;;;;35.00;30.00;;;;;;;;5066243;27;45843;-84
2022/04/23 05:03:29;;;;;;;;;31.33;28.33;;;;;;;;4995024;27;45602;-82
2022/04/23 05:05:54;;;;;;;;;31.67;29.00;;;;;;;;5058774;27;45522;-81
2022/04/23 05:08:19;;;;;;;;;28.33;26.33;;;;;;;;5085749;27;46091;-83
2022/04/23 05:10:50;;;;;;;;;30.00;27.67;;;;;;;;5091597;27;45898;-86
2022/04/23 05:13:16;;;;;;;;;24.33;24.33;;;;;;;;5095191;27;46420;-85
2022/04/23 05:15:43;;;;;;;;;26.00;24.67;;;;;;;;5080520;27;45493;-83
2022/04/23 05:18:08;;;;;;;;;28.33;24.67;;;;;;;;5094194;27;45598;-86
2022/04/23 05:20:34;;;;;;;;;32.33;28.67;;;;;;;;5081117;27;47114;-85
2022/04/23 05:22:59;;;;;;;;;27.67;26.67;;;;;;;;5090380;27;46258;-84
2022/04/23 05:25:26;;;;;;;;;31.67;27.33;;;;;;;;5075206;27;45491;-85
2022/04/23 05:27:52;;;;;;;;;31.33;30.00;;;;;;;;5091296;27;45660;-84
2022/04/23 05:30:17;;;;;;;;;34.00;30.00;;;;;;;;5070641;27;45604;-84
2022/04/23 05:32:46;;;;;;;;;37.00;29.33;;;;;;;;5084038;27;45490;-79
2022/04/23 05:35:15;;;;;;;;;30.33;27.67;;;;;;;;5082394;27;45532;-83
2022/04/23 05:37:40;;;;;;;;;30.33;28.67;;;;;;;;5068638;27;45528;-83
2022/04/23 05:40:06;;;;;;;;;31.33;27.67;;;;;;;;5070460;27;46207;-85
2022/04/23 05:42:32;;;;;;;;;24.67;22.67;;;;;;;;5075480;27;46541;-85
2022/04/23 05:44:57;;;;;;;;;30.67;28.33;;;;;;;;5067913;27;45624;-82
2022/04/23 05:47:23;;;;;;;;;28.67;25.00;;;;;;;;5099968;27;45948;-81
2022/04/23 05:49:48;;;;;;;;;27.00;24.33;;;;;;;;5086307;27;45680;-81
2022/04/23 05:52:14;;;;;;;;;27.67;25.67;;;;;;;;5081339;27;46174;-83
2022/04/23 05:54:42;;;;;;;;;28.33;26.33;;;;;;;;5073774;27;45885;-86
2022/04/23 05:57:07;;;;;;;;;31.67;28.67;;;;;;;;5091070;27;45313;-87
2022/04/23 05:59:33;;;;;;;;;30.67;28.33;;;;;;;;5084885;27;45887;-79
2022/04/23 06:01:59;;;;;;;;;25.67;25.00;;;;;;;;5095095;27;46430;-81
2022/04/23 06:04:26;;;;;;;;;33.67;28.33;;;;;;;;5073703;27;45783;-81
2022/04/23 06:06:55;;;;;;;;;24.00;23.67;;;;;;;;5084693;27;45583;-81
2022/04/23 06:09:21;;;;;;;;;25.33;23.67;;;;;;;;5090718;27;46948;-81
2022/04/23 06:11:47;;;;;;;;;24.67;22.00;;;;;;;;5060821;27;48494;-81
2022/04/23 06:14:15;;;;;;;;;26.33;23.00;;;;;;;;5067653;27;45519;-83
2022/04/23 06:16:49;;;;;;;;;31.00;28.67;;;;;;;;5094107;27;45907;-84
2022/04/23 06:19:18;;;;;;;;;25.67;24.33;;;;;;;;5069294;27;45931;-85
2022/04/23 06:21:59;;;;;;;;;28.33;24.67;;;;;;;;5087526;27;48154;-83
2022/04/23 06:24:45;;;;;;;;;26.67;26.67;;;;;;;;5069205;27;45803;-83
2022/04/23 06:27:30;;;;;;;;;29.67;25.33;;;;;;;;5090536;27;45538;-82
2022/04/23 06:30:15;;;;;;;;;31.33;28.33;;;;;;;;5078206;27;45822;-83
2022/04/23 06:32:45;;;;;;;;;32.00;32.00;;;;;;;;5088186;27;45549;-82
2022/04/23 06:35:11;;;;;;;;;29.67;24.00;;;;;;;;5069970;27;45848;-80
2022/04/23 06:37:40;;;;;;;;;31.00;26.00;;;;;;;;5071262;27;45698;-82
2022/04/23 06:40:08;;;;;;;;;33.33;29.33;;;;;;;;5064108;27;45791;-79
2022/04/23 06:42:35;;;;;;;;;23.00;22.00;;;;;;;;5084547;27;45904;-82
2022/04/23 06:45:05;;;;;;;;;25.33;23.33;;;;;;;;5061865;27;45925;-82
2022/04/23 06:51:25;;;;;;;;;33.00;25.33;;;;;;;;5001179;28;46043;-82
2022/04/23 06:53:51;;;;;;;;;30.00;28.33;;;;;;;;5042608;28;45825;-82
2022/04/23 06:56:18;;;;;;;;;28.33;25.67;;;;;;;;5078530;27;45994;-82
2022/04/23 06:58:46;;;;;;;;;29.67;22.33;;;;;;;;5067296;27;45408;-80
2022/04/23 07:01:12;;;;;;;;;20.33;19.67;;;;;;;;5085176;27;45795;-80
2022/04/23 07:03:37;;;;;;;;;27.00;25.67;;;;;;;;5082316;27;45459;-79
2022/04/23 07:06:06;;;;;;;;;24.00;22.33;;;;;;;;5068368;27;46421;-80
2022/04/23 07:08:31;;;;;;;;;25.33;22.00;;;;;;;;5062210;27;45967;-82
2022/04/23 07:10:58;;;;;;;;;27.67;26.67;;;;;;;;5085422;27;45715;-83
2022/04/23 07:13:29;;;;;;;;;19.67;18.33;;;;;;;;5089276;27;45493;-83
2022/04/23 07:15:54;;;;;;;;;23.67;23.67;;;;;;;;5095495;27;45976;-82
2022/04/23 07:18:19;;;;;;;;;22.33;21.33;;;;;;;;5078957;27;45759;-80
2022/04/23 07:20:45;;;;;;;;;26.67;22.00;;;;;;;;5058216;27;46358;-80
2022/04/23 07:25:54;;;;;;;;;28.67;23.33;;;;;;;;5072276;27;45945;-81
2022/04/23 07:28:22;;;;;;;;;25.33;25.33;;;;;;;;5077937;27;45646;-80
2022/04/23 07:30:48;;;;;;;;;28.67;27.00;;;;;;;;5080249;27;45909;-80
2022/04/23 07:37:28;;;;;;;;;25.33;22.00;;;;;;;;5085615;27;46537;-73
2022/04/23 07:38:42;;;;;;;;;26.33;23.33;;;;;;;;5059783;27;45835;-79
2022/04/23 07:41:09;;;;;;;;;27.00;25.67;;;;;;;;5062606;27;45821;-79
2022/04/23 07:43:34;;;;;;;;;50.00;37.67;;;;;;;;5081564;27;45542;-78
2022/04/23 07:45:59;;;;;;;;;29.33;25.67;;;;;;;;5087432;27;45724;-78
2022/04/23 07:48:25;;;;;;;;;30.33;26.33;;;;;;;;5087522;27;45629;-83
2022/04/23 07:50:50;;;;;;;;;31.67;25.00;;;;;;;;5074477;27;46692;-82
2022/04/23 07:53:16;;;;;;;;;27.67;24.33;;;;;;;;5070536;27;47557;-82
2022/04/23 07:55:42;;;;;;;;;31.00;28.00;;;;;;;;5089391;27;45748;-83
2022/04/23 07:58:09;;;;;;;;;30.33;26.67;;;;;;;;5075972;27;46226;-85
2022/04/23 08:00:35;;;;;;;;;36.67;31.67;;;;;;;;5064192;27;46956;-76
2022/04/23 08:03:08;;;;;;;;;28.33;26.00;;;;;;;;5076014;27;48144;-85
2022/04/23 08:05:54;;;;;;;;;36.00;33.00;;;;;;;;5088691;27;45774;-88
2022/04/23 08:08:23;;;;;;;;;29.67;27.33;;;;;;;;5076254;28;46078;-86
2022/04/23 08:10:49;;;;;;;;;27.67;26.67;;;;;;;;5073507;27;47274;-84
2022/04/23 08:13:15;;;;;;;;;34.33;32.67;;;;;;;;5074600;27;48153;-78
2022/04/23 08:15:40;;;;;;;;;34.33;29.00;;;;;;;;5086337;27;45761;-82
2022/04/23 08:18:07;;;;;;;;;37.33;28.67;;;;;;;;5093410;27;45878;-84
2022/04/23 08:20:32;;;;;;;;;26.00;23.33;;;;;;;;5074764;27;46211;-84
2022/04/23 08:22:57;;;;;;;;;27.33;25.33;;;;;;;;5084473;27;45598;-83
2022/04/23 08:25:23;;;;;;;;;25.67;22.00;;;;;;;;5068481;27;45732;-83
2022/04/23 08:27:53;;;;;;;;;28.67;26.00;;;;;;;;5071231;27;45411;-80
2022/04/23 08:30:52;;;;;;;;;27.00;24.33;;;;;;;;5075377;27;45918;-82
2022/04/23 08:33:10;;;;;;;;;32.33;30.00;;;;;;;;5095885;27;46657;-83
2022/04/23 08:35:36;;;;;;;;;29.00;24.00;;;;;;;;5102213;27;45451;-82
2022/04/23 08:38:03;;;;;;;;;30.33;27.67;;;;;;;;5080031;27;45917;-78
2022/04/23 08:40:34;;;;;;;;;30.67;24.00;;;;;;;;5081612;27;45577;-79
2022/04/23 08:42:59;;;;;;;;;28.00;26.67;;;;;;;;5075245;27;46109;-82
2022/04/23 08:45:25;;;;;;;;;30.00;23.33;;;;;;;;5089496;27;45568;-88
2022/04/23 08:47:50;;;;;;;;;29.67;28.33;;;;;;;;5077860;27;45471;-79
2022/04/23 08:50:16;;;;;;;;;33.00;30.67;;;;;;;;5082527;27;45373;-80
2022/04/23 08:52:42;;;;;;;;;29.67;26.00;;;;;;;;5060706;28;47738;-80
2022/04/23 08:55:08;;;;;;;;;30.00;25.00;;;;;;;;5082569;27;45960;-78
2022/04/23 08:57:40;;;;;;;;;29.00;25.00;;;;;;;;5065919;27;45754;-92
2022/04/23 09:00:08;;;;;;;;;27.67;25.33;;;;;;;;5083289;27;45561;-83
2022/04/23 09:02:46;;;;;;;;;32.00;30.33;;;;;;;;5060474;28;46123;-82
2022/04/23 09:05:46;;;;;;;;;;;;;;;;;;;;;
2022/04/23 09:08:17;;;;;;;;;32.67;26.00;;;;;;;;5090659;27;68344;-84
2022/04/23 09:11:12;;;;;;;;;27.67;26.67;;;;;;;;5043901;28;46002;-87
2022/04/23 09:14:15;;;;;;;;;;;;;;;;;;;;;
2022/04/23 09:26:38;;;;;;;;;;;;;;;;;;;;;
2022/04/23 09:29:58;;;;;;;;;;;;;;;;;;;;;
2022/04/23 09:36:12;;;;;;;;;28.67;24.00;;;;;;;;5084230;27;45326;-87
2022/04/23 09:38:55;;;;;;;;;35.67;31.33;;;;;;;;5064785;27;48541;-86
2022/04/23 09:41:41;;;;;;;;;29.33;29.33;;;;;;;;5070495;27;45651;-85
2022/04/23 09:44:14;;;;;;;;;25.00;24.00;;;;;;;;5006226;28;44864;-83
2022/04/23 09:46:44;;;;;;;;;29.33;24.00;;;;;;;;5030254;28;46483;-81
2022/04/23 09:49:12;;;;;;;;;29.67;27.67;;;;;;;;5060965;27;46158;-80
2022/04/23 09:51:37;;;;;;;;;30.67;27.33;;;;;;;;5093381;27;45529;-81
2022/04/23 09:54:03;;;;;;;;;29.33;23.67;;;;;;;;5095507;27;44701;-81
2022/04/23 09:56:29;;;;;;;;;21.67;19.67;;;;;;;;5095523;27;45678;-83
2022/04/23 09:58:54;;;;;;;;;32.00;30.00;;;;;;;;5096591;27;46559;-76
2022/04/23 10:01:22;;;;;;;;;29.00;24.67;;;;;;;;5098022;27;45577;-84
2022/04/23 10:03:56;;;;;;;;;32.67;28.67;;;;;;;;5100820;27;45275;-82
2022/04/23 10:06:23;;;;;;;;;25.33;24.33;;;;;;;;5088228;27;47051;-82
2022/04/23 10:08:51;;;;;;;;;31.00;27.67;;;;;;;;5085116;28;46690;-81
2022/04/23 10:14:28;;;;;;;;;25.67;23.67;;;;;;;;5084899;27;45718;-83
2022/04/23 10:19:48;;;;;;;;;27.33;27.33;;;;;;;;4949774;28;45519;-84
2022/04/23 10:22:25;;;;;;;;;21.33;19.67;;;;;;;;5059097;27;44735;-84
2022/04/23 10:25:22;;;;;;;;;;;;;;;;;;;;;
2022/04/23 10:28:09;;;;;;;;;23.67;22.67;;;;;;;;5057005;27;73327;-82
2022/04/23 10:30:34;;;;;;;;;27.67;24.67;;;;;;;;5088622;27;46413;-79
2022/04/23 10:33:20;;;;;;;;;23.67;22.67;;;;;;;;5075943;27;45455;-81
2022/04/23 10:36:08;;;;;;;;;28.67;24.33;;;;;;;;5054734;27;45647;-81
2022/04/23 10:38:38;;;;;;;;;28.33;24.67;;;;;;;;5097042;27;45397;-82
2022/04/23 10:41:04;;;;;;;;;25.33;24.67;;;;;;;;5091622;27;45819;-76
2022/04/23 10:43:30;;;;;;;;;24.67;23.67;;;;;;;;5065467;27;45612;-73
2022/04/23 10:46:00;;;;;;;;;27.00;24.67;;;;;;;;5081633;27;45590;-76
2022/04/23 10:48:33;;;;;;;;;24.67;24.67;;;;;;;;5062556;28;46128;-75
2022/04/23 10:51:04;;;;;;;;;24.67;23.33;;;;;;;;5065176;27;47080;-80
2022/04/23 10:53:37;;;;;;;;;27.67;24.67;;;;;;;;5091359;27;46000;-83
2022/04/23 10:56:13;;;;;;;;;23.00;22.67;;;;;;;;5086002;27;45400;-81
2022/04/23 10:58:40;;;;;;;;;26.33;24.33;;;;;;;;5065509;27;46359;-76
2022/04/23 11:01:23;;;;;;;;;25.33;25.33;;;;;;;;5083474;27;45607;-76
2022/04/23 11:12:36;;;;;;;;;30.00;26.33;;;;;;;;5096486;27;45866;-79
2022/04/23 11:15:02;;;;;;;;;27.67;26.67;;;;;;;;5097006;27;45642;-83
2022/04/23 11:17:31;;;;;;;;;28.67;24.33;;;;;;;;5082078;27;45472;-83
2022/04/23 11:23:42;;;;;;;;;29.33;25.33;;;;;;;;5017096;28;46010;-79
2022/04/23 11:26:29;;;;;;;;;27.00;23.67;;;;;;;;5011056;28;45537;-81
2022/04/23 11:28:58;;;;;;;;;20.33;19.67;;;;;;;;5020705;28;45544;-82
2022/04/23 11:31:24;;;;;;;;;23.00;20.67;;;;;;;;5010256;28;45476;-81
2022/04/23 11:33:50;;;;;;;;;21.67;20.67;;;;;;;;5014803;28;45559;-79
2022/04/23 11:36:30;;;;;;;;;15.33;13.00;;;;;;;;5002079;28;45673;-81
2022/04/23 11:42:07;;;;;;;;;21.00;19.00;;;;;;;;4938169;28;45618;-78
2022/04/23 11:45:12;;;;;;;;;;;;;;;;;;;;;
2022/04/23 11:48:15;;;;;;;;;;;;;;;;;;;;;
2022/04/23 11:50:52;;;;;;;;;21.00;20.00;;;;;;;;4944058;28;68722;-80
2022/04/23 11:53:18;;;;;;;;;16.67;15.00;;;;;;;;4981782;27;45522;-76
2022/04/23 11:55:48;;;;;;;;;18.33;18.00;;;;;;;;5094845;27;45450;-76
2022/04/23 11:58:22;;;;;;;;;16.33;14.67;;;;;;;;5097737;27;45370;-76
2022/04/23 12:00:47;;;;;;;;;15.33;13.33;;;;;;;;5094582;27;45665;-76
2022/04/23 12:03:13;;;;;;;;;17.33;16.33;;;;;;;;5096810;27;45376;-80
2022/04/23 12:05:38;;;;;;;;;12.33;12.33;;;;;;;;5077604;27;46859;-80
2022/04/23 12:08:25;;;;;;;;;11.67;11.67;;;;;;;;5077074;27;45353;-80
2022/04/23 12:10:50;;;;;;;;;13.67;10.33;;;;;;;;5093150;27;45373;-76
2022/04/23 12:13:18;;;;;;;;;16.67;13.67;;;;;;;;5085697;27;47222;-82
2022/04/23 12:15:46;;;;;;;;;12.67;11.67;;;;;;;;5073410;27;47315;-84
2022/04/23 12:18:17;;;;;;;;;17.33;11.67;;;;;;;;5095886;27;45472;-78
2022/04/23 12:20:43;;;;;;;;;8.67;8.67;;;;;;;;5087868;27;45416;-76
2022/04/23 12:23:08;;;;;;;;;11.00;10.33;;;;;;;;5081073;27;46433;-82
2022/04/23 12:25:34;;;;;;;;;16.00;11.67;;;;;;;;5093450;27;46443;-77
2022/04/23 12:42:30;;;;;;;;;12.67;12.67;;;;;;;;5084296;27;45509;-81
2022/04/23 12:45:00;;;;;;;;;11.67;11.33;;;;;;;;5094188;27;45501;-77
2022/04/23 12:47:35;;;;;;;;;11.67;11.67;;;;;;;;5086465;27;46796;-75
2022/04/23 12:50:07;;;;;;;;;11.67;10.67;;;;;;;;5103660;27;45541;-84
2022/04/23 12:52:36;;;;;;;;;11.67;10.33;;;;;;;;5071052;28;45504;-79
2022/04/23 12:55:36;;;;;;;;;12.00;12.00;;;;;;;;5095481;27;45682;-76
2022/04/23 12:58:04;;;;;;;;;11.00;11.00;;;;;;;;5087128;27;45510;-77
2022/04/23 13:00:33;;;;;;;;;11.33;11.33;;;;;;;;5070802;27;45443;-77
2022/04/23 13:03:06;;;;;;;;;10.67;9.33;;;;;;;;5090142;27;45361;-77
2022/04/23 13:05:32;;;;;;;;;11.00;8.00;;;;;;;;5086444;27;45431;-77
2022/04/23 13:10:42;;;;;;;;;8.67;8.67;;;;;;;;5079572;27;45477;-77
2022/04/23 13:13:07;;;;;;;;;10.67;9.67;;;;;;;;5085968;27;45734;-81
2022/04/23 13:15:34;;;;;;;;;6.00;5.33;;;;;;;;5081711;27;45609;-78
2022/04/23 13:18:00;;;;;;;;;10.33;9.33;;;;;;;;5079054;27;46762;-76
2022/04/23 13:20:26;;;;;;;;;12.00;10.00;;;;;;;;5081681;27;45611;-82
2022/04/23 13:22:53;;;;;;;;;9.33;9.33;;;;;;;;5078334;27;45488;-77
2022/04/23 13:25:18;;;;;;;;;17.33;14.00;;;;;;;;5068641;28;47007;-78
2022/04/23 13:27:44;;;;;;;;;9.67;9.33;;;;;;;;5072396;27;46103;-79
2022/04/23 13:30:10;;;;;;;;;14.00;10.67;;;;;;;;5077341;27;45643;-76
2022/04/23 13:32:37;;;;;;;;;16.00;10.33;;;;;;;;5057319;27;45666;-78
2022/04/23 13:35:03;;;;;;;;;8.67;7.00;;;;;;;;5074477;27;45797;-77
2022/04/23 13:37:28;;;;;;;;;12.33;11.00;;;;;;;;5073011;27;46624;-75
2022/04/23 13:39:53;;;;;;;;;9.33;9.33;;;;;;;;5072493;28;45444;-76
2022/04/23 13:42:19;;;;;;;;;9.00;8.67;;;;;;;;5087000;27;45519;-81
2022/04/23 13:44:44;;;;;;;;;10.33;8.67;;;;;;;;5057523;28;45967;-83
2022/04/23 13:47:10;;;;;;;;;10.00;10.00;;;;;;;;5080041;27;46222;-77
2022/04/23 13:49:36;;;;;;;;;6.33;6.33;;;;;;;;5075017;27;45426;-75
2022/04/23 13:52:04;;;;;;;;;9.00;8.33;;;;;;;;5095324;27;45520;-82
2022/04/23 13:54:35;;;;;;;;;8.33;7.00;;;;;;;;5087149;27;45517;-80
2022/04/23 13:57:16;;;;;;;;;6.00;6.00;;;;;;;;5082619;27;45905;-86
2022/04/23 13:59:41;;;;;;;;;7.33;6.67;;;;;;;;5096309;27;45411;-85
2022/04/23 14:10:20;;;;;;;;;5.00;5.00;;;;;;;;5085568;27;45881;-85
2022/04/23 14:12:46;;;;;;;;;5.67;4.67;;;;;;;;5089039;27;45370;-80
2022/04/23 14:15:11;;;;;;;;;7.00;5.67;;;;;;;;5091490;27;45325;-81
2022/04/23 14:17:37;;;;;;;;;11.67;8.00;;;;;;;;5093406;27;45412;-81
2022/04/23 14:20:02;;;;;;;;;7.00;7.00;;;;;;;;5084573;27;45896;-81
2022/04/23 14:22:28;;;;;;;;;5.67;5.00;;;;;;;;5090508;27;45529;-76
2022/04/23 14:24:54;;;;;;;;;7.00;6.00;;;;;;;;5069229;27;45711;-75
2022/04/23 14:27:19;;;;;;;;;6.00;6.00;;;;;;;;5085894;27;46789;-76
2022/04/23 14:29:44;;;;;;;;;5.67;5.00;;;;;;;;5087394;27;45371;-76
2022/04/23 14:32:10;;;;;;;;;3.33;3.33;;;;;;;;5085294;27;45956;-76
2022/04/23 14:34:35;;;;;;;;;3.67;3.67;;;;;;;;5067642;27;45894;-76
2022/04/23 14:37:01;;;;;;;;;5.67;3.67;;;;;;;;5090140;27;46790;-77
2022/04/23 14:39:26;;;;;;;;;2.33;2.33;;;;;;;;5096672;27;45593;-78
2022/04/23 14:41:52;;;;;;;;;2.00;2.00;;;;;;;;5070820;27;45395;-79
2022/04/23 14:44:37;;;;;;;;;;;;;;;;;;;;;
2022/04/23 14:47:09;;;;;;;;;3.00;2.00;;;;;;;;5102690;27;57329;-77
2022/04/23 14:49:43;;;;;;;;;1.25;1.00;;;;;;;;5075442;28;28620;-74
2022/04/23 14:54:56;;;;;;;;;2.67;2.00;;;;;;;;5085471;27;45392;-80
2022/04/23 14:57:22;;;;;;;;;2.00;0.67;;;;;;;;5081662;27;46781;-80
2022/04/23 14:59:50;;;;;;;;;1.00;1.00;;;;;;;;5100120;27;45388;-80
2022/04/23 15:02:18;;;;;;;;;2.00;2.00;;;;;;;;5081062;27;45456;-80
2022/04/23 15:05:12;;;;;;;;;;;;;;;;;;;;;
2022/04/23 15:08:38;;;;;;;;;;;;;;;;;;;;;
2022/04/23 15:17:36;;;;;;;;;2.00;2.00;;;;;;;;4953691;28;45618;-85
2022/04/23 15:20:08;;;;;;;;;1.67;1.67;;;;;;;;4993189;28;47944;-83
2022/04/23 15:22:35;;;;;;;;;2.00;1.00;;;;;;;;5044110;27;45698;-82
2022/04/23 15:25:01;;;;;;;;;3.33;2.33;;;;;;;;5054550;28;45557;-82
2022/04/23 15:27:26;;;;;;;;;3.00;2.00;;;;;;;;5032744;28;45872;-79
2022/04/23 15:29:54;;;;;;;;;2.50;2.00;;;;;;;;5064990;28;45840;-74
2022/04/23 15:32:20;;;;;;;;;2.00;2.00;;;;;;;;5060571;28;45485;-77
2022/04/23 15:34:47;;;;;;;;;1.00;1.00;;;;;;;;5047421;28;45640;-84
2022/04/23 15:43:15;;;;;;;;;2.33;2.33;;;;;;;;4977879;28;45504;-82
2022/04/23 15:45:40;;;;;;;;;4.00;3.00;;;;;;;;4993923;28;45823;-81
2022/04/23 15:48:08;;;;;;;;;3.67;3.00;;;;;;;;4964069;28;45772;-79
2022/04/23 15:50:33;;;;;;;;;3.00;1.67;;;;;;;;4983550;28;46790;-80
2022/04/23 15:52:59;;;;;;;;;2.67;2.33;;;;;;;;5052535;28;45800;-82
2022/04/23 15:55:29;;;;;;;;;2.67;1.67;;;;;;;;5068197;28;45934;-82
2022/04/23 15:57:56;;;;;;;;;3.33;2.00;;;;;;;;5054944;28;45674;-82
2022/04/23 16:00:24;;;;;;;;;7.00;7.00;;;;;;;;5054549;28;45807;-82
2022/04/23 16:03:24;;;;;;;;;8.00;8.00;;;;;;;;5070591;28;45424;-81
2022/04/23 16:05:37;;;;;;;;;9.00;8.00;;;;;;;;5086241;28;44665;-82